createdAt,value
2017-05-06T00:02:08.966Z,86.00
2017-05-06T00:04:39.241Z,86.10
2017-05-06T00:07:08.988Z,86.40
2017-05-06T00:09:37.942Z,86.20
2017-05-06T00:12:06.937Z,85.20
2017-05-06T00:14:35.998Z,85.20
2017-05-06T00:17:05.385Z,85.10
2017-05-06T00:19:34.404Z,85.90
2017-05-06T00:22:03.409Z,86.00
2017-05-06T00:24:32.403Z,86.30
2017-05-06T00:27:01.375Z,86.30
2017-05-06T00:29:30.734Z,85.80
2017-05-06T00:32:00.461Z,85.10
2017-05-06T00:34:29.454Z,85.70
2017-05-06T00:36:58.437Z,85.50
2017-05-06T00:39:28.137Z,86.70
2017-05-06T00:41:58.427Z,86.10
2017-05-06T00:44:27.435Z,86.20
2017-05-06T00:46:56.449Z,86.10
2017-05-06T00:49:26.210Z,86.10
2017-05-06T00:51:55.192Z,85.70
2017-05-06T00:54:24.504Z,85.20
2017-05-06T00:56:53.481Z,85.70
2017-05-06T00:59:22.470Z,85.80
2017-05-06T01:01:51.460Z,85.50
2017-05-06T01:04:20.414Z,86.00
2017-05-06T01:06:50.548Z,86.20
2017-05-06T01:09:20.655Z,86.20
2017-05-06T01:11:50.664Z,86.40
2017-05-06T01:14:20.378Z,86.50
2017-05-06T01:16:50.122Z,86.40
2017-05-06T01:19:19.217Z,86.50
2017-05-06T01:21:48.181Z,86.50
2017-05-06T01:24:17.474Z,86.70
2017-05-06T01:26:47.191Z,86.70
2017-05-06T01:29:16.191Z,86.40
2017-05-06T01:31:45.209Z,85.90
2017-05-06T01:34:14.179Z,85.90
2017-05-06T01:36:43.483Z,86.10
2017-05-06T01:39:12.472Z,86.30
2017-05-06T01:41:41.484Z,86.00
2017-05-06T01:44:10.460Z,86.10
2017-05-06T01:46:39.493Z,86.00
2017-05-06T01:49:08.831Z,86.60
2017-05-06T01:51:38.543Z,86.00
2017-05-06T01:54:07.530Z,86.40
2017-05-06T01:56:37.246Z,86.40
2017-05-06T01:59:06.227Z,87.20
2017-05-06T02:01:36.249Z,86.30
2017-05-06T02:04:04.474Z,86.30
2017-05-06T02:06:33.446Z,85.90
2017-05-06T02:09:02.459Z,85.60
2017-05-06T02:11:31.429Z,85.80
2017-05-06T02:14:00.754Z,86.50
2017-05-06T02:16:29.708Z,85.80
2017-05-06T02:18:58.715Z,85.40
2017-05-06T02:21:27.699Z,85.60
2017-05-06T02:23:56.682Z,85.70
2017-05-06T02:26:25.966Z,85.90
2017-05-06T02:28:55.694Z,85.60
2017-05-06T02:31:24.671Z,86.20
2017-05-06T02:33:53.666Z,85.70
2017-05-06T02:36:22.632Z,85.50
2017-05-06T02:38:52.657Z,85.60
2017-05-06T02:41:22.357Z,85.90
2017-05-06T02:43:52.102Z,85.80
2017-05-06T02:46:21.086Z,85.60
2017-05-06T02:48:50.053Z,85.20
2017-05-06T02:51:20.066Z,85.10
2017-05-06T02:53:49.787Z,85.20
2017-05-06T02:56:19.930Z,85.10
2017-05-06T02:58:48.897Z,85.70
2017-05-06T03:01:18.631Z,85.20
2017-05-06T03:03:47.696Z,85.20
2017-05-06T03:06:17.422Z,85.20
2017-05-06T03:08:46.713Z,85.30
2017-05-06T03:11:15.681Z,84.60
2017-05-06T03:13:44.648Z,85.30
2017-05-06T03:16:13.629Z,85.30
2017-05-06T03:18:42.613Z,85.30
2017-05-06T03:21:12.014Z,84.70
2017-05-06T03:23:40.984Z,85.00
2017-05-06T03:26:10.740Z,85.20
2017-05-06T03:28:39.815Z,85.20
2017-05-06T03:31:08.846Z,85.20
2017-05-06T03:33:38.167Z,85.20
2017-05-06T03:36:07.868Z,85.20
2017-05-06T03:38:38.026Z,85.40
2017-05-06T03:41:06.988Z,85.30
2017-05-06T03:43:36.710Z,85.20
2017-05-06T03:46:05.695Z,85.20
2017-05-06T03:48:34.656Z,85.30
2017-05-06T03:51:04.173Z,85.20
2017-05-06T03:53:33.876Z,85.30
2017-05-06T03:56:03.929Z,85.30
2017-05-06T03:58:32.926Z,85.30
2017-05-06T04:01:01.913Z,85.30
2017-05-06T04:03:30.908Z,85.30
2017-05-06T04:05:59.918Z,85.30
2017-05-06T04:08:29.236Z,84.70
2017-05-06T04:10:58.179Z,84.80
2017-05-06T04:13:27.143Z,85.50
2017-05-06T04:15:56.870Z,85.30
2017-05-06T04:18:26.549Z,85.30
2017-05-06T04:20:55.855Z,85.00
2017-05-06T04:23:24.810Z,84.20
2017-05-06T04:25:53.763Z,84.10
2017-05-06T04:28:22.713Z,85.10
2017-05-06T04:30:51.699Z,84.20
2017-05-06T04:33:21.028Z,83.30
2017-05-06T04:35:50.714Z,83.50
2017-05-06T04:38:19.655Z,83.30
2017-05-06T04:40:48.608Z,83.50
2017-05-06T04:43:17.546Z,83.30
2017-05-06T04:45:46.781Z,82.70
2017-05-06T04:48:15.709Z,83.00
2017-05-06T04:50:45.389Z,83.20
2017-05-06T04:53:14.479Z,83.30
2017-05-06T04:55:43.478Z,83.30
2017-05-06T04:58:12.797Z,83.50
2017-05-06T05:00:42.503Z,83.80
2017-05-06T05:03:12.416Z,84.00
2017-05-06T05:05:42.117Z,83.50
2017-05-06T05:08:11.812Z,83.20
2017-05-06T05:10:41.073Z,82.70
2017-05-06T05:13:10.029Z,82.50
2017-05-06T05:15:38.992Z,80.90
2017-05-06T05:18:08.007Z,81.20
2017-05-06T05:20:36.947Z,81.70
2017-05-06T05:23:06.207Z,81.60
2017-05-06T05:25:35.894Z,81.10
2017-05-06T05:28:04.922Z,80.80
2017-05-06T05:30:33.882Z,80.50
2017-05-06T05:33:02.827Z,80.10
2017-05-06T05:35:32.172Z,79.70
2017-05-06T05:38:01.121Z,79.40
2017-05-06T05:40:30.058Z,78.90
2017-05-06T05:42:59.941Z,79.10
2017-05-06T05:45:28.915Z,79.60
2017-05-06T05:47:58.159Z,79.40
2017-05-06T05:50:27.858Z,79.70
2017-05-06T05:52:56.817Z,79.30
2017-05-06T05:55:25.838Z,79.10
2017-05-06T05:57:54.794Z,79.30
2017-05-06T06:00:24.083Z,79.70
2017-05-06T06:02:53.019Z,79.50
2017-05-06T06:05:21.988Z,79.30
2017-05-06T06:07:50.963Z,79.10
2017-05-06T06:10:19.916Z,79.10
2017-05-06T06:12:49.926Z,79.10
2017-05-06T06:15:19.622Z,79.10
2017-05-06T06:17:48.579Z,79.30
2017-05-06T06:20:17.574Z,79.40
2017-05-06T06:22:46.559Z,77.60
2017-05-06T06:25:15.910Z,77.40
2017-05-06T06:27:45.621Z,76.90
2017-05-06T06:30:15.660Z,77.10
2017-05-06T06:32:44.661Z,77.20
2017-05-06T06:35:14.442Z,75.90
2017-05-06T06:37:44.162Z,75.80
2017-05-06T06:40:13.893Z,75.30
2017-05-06T06:42:43.142Z,75.00
2017-05-06T06:45:12.086Z,73.60
2017-05-06T06:47:41.060Z,73.40
2017-05-06T06:50:10.041Z,72.60
2017-05-06T06:52:39.764Z,72.10
2017-05-06T06:55:09.030Z,70.10
2017-05-06T06:57:37.983Z,70.10
2017-05-06T07:00:06.941Z,70.20
2017-05-06T07:02:35.986Z,70.80
2017-05-06T07:05:04.938Z,68.20
2017-05-06T07:07:34.393Z,68.60
2017-05-06T07:10:03.384Z,67.70
2017-05-06T07:12:32.326Z,68.70
2017-05-06T07:15:01.289Z,67.80
2017-05-06T07:17:30.964Z,67.70
2017-05-06T07:20:00.266Z,67.20
2017-05-06T07:22:29.227Z,66.20
2017-05-06T07:24:59.409Z,66.90
2017-05-06T07:27:28.438Z,67.50
2017-05-06T07:29:57.384Z,66.40
2017-05-06T07:32:27.394Z,66.70
2017-05-06T07:34:56.363Z,67.70
2017-05-06T07:37:26.503Z,67.10
2017-05-06T07:39:55.479Z,67.10
2017-05-06T07:42:24.454Z,67.00
2017-05-06T07:44:53.773Z,66.40
2017-05-06T07:47:22.767Z,66.10
2017-05-06T07:49:51.709Z,68.50
2017-05-06T07:52:20.691Z,66.30
2017-05-06T07:54:49.698Z,66.20
2017-05-06T07:57:19.917Z,65.70
2017-05-06T07:59:48.916Z,66.00
2017-05-06T08:02:17.957Z,66.20
2017-05-06T08:04:46.919Z,64.80
2017-05-06T08:07:15.864Z,64.30
2017-05-06T08:09:45.345Z,63.40
2017-05-06T08:12:14.305Z,62.10
2017-05-06T08:14:43.270Z,60.90
2017-05-06T08:17:12.238Z,61.20
2017-05-06T08:19:41.203Z,62.20
2017-05-06T08:22:10.604Z,61.20
2017-05-06T08:24:39.564Z,61.30
2017-05-06T08:27:08.565Z,60.20
2017-05-06T08:29:37.564Z,62.00
2017-05-06T08:32:06.587Z,60.00
2017-05-06T08:34:36.583Z,60.10
2017-05-06T08:37:05.568Z,59.80
2017-05-06T08:39:34.550Z,60.50
2017-05-06T08:42:03.526Z,59.70
2017-05-06T08:44:32.474Z,61.80
2017-05-06T08:47:02.486Z,60.80
2017-05-06T08:49:31.454Z,59.30
2017-05-06T08:52:01.467Z,60.90
2017-05-06T08:54:30.544Z,59.90
2017-05-06T08:56:59.523Z,61.00
2017-05-06T08:59:28.894Z,62.30
2017-05-06T09:01:57.877Z,62.30
2017-05-06T09:04:27.633Z,61.20
2017-05-06T09:06:56.632Z,61.10
2017-05-06T09:09:25.622Z,62.70
2017-05-06T09:11:54.970Z,61.80
2017-05-06T09:14:23.938Z,60.80
2017-05-06T09:16:52.912Z,61.80
2017-05-06T09:19:21.898Z,62.70
2017-05-06T09:21:50.841Z,62.40
2017-05-06T09:24:20.942Z,62.80
2017-05-06T09:26:50.630Z,62.80
2017-05-06T09:29:19.607Z,62.60
2017-05-06T09:31:48.597Z,62.70
2017-05-06T09:34:17.568Z,62.80
2017-05-06T09:36:46.990Z,62.00
2017-05-06T09:39:16.056Z,62.80
2017-05-06T09:41:45.059Z,61.80
2017-05-06T09:44:14.023Z,60.80
2017-05-06T09:46:43.016Z,61.30
2017-05-06T09:49:11.980Z,61.40
2017-05-06T09:51:41.883Z,59.00
2017-05-06T09:54:11.233Z,59.80
2017-05-06T09:56:40.219Z,59.50
2017-05-06T09:59:09.186Z,58.80
2017-05-06T10:01:38.175Z,58.60
2017-05-06T10:04:07.908Z,58.90
2017-05-06T10:06:37.200Z,56.80
2017-05-06T10:09:06.170Z,57.20
2017-05-06T10:11:35.165Z,56.40
2017-05-06T10:14:04.147Z,56.70
2017-05-06T10:16:33.099Z,55.90
2017-05-06T10:19:02.506Z,55.60
2017-05-06T10:21:31.510Z,56.20
2017-05-06T10:24:00.485Z,54.50
2017-05-06T10:26:29.450Z,55.00
2017-05-06T10:28:58.419Z,55.60
2017-05-06T10:31:28.436Z,55.50
2017-05-06T10:33:58.148Z,54.80
2017-05-06T10:36:27.996Z,55.40
2017-05-06T10:38:57.120Z,56.20
2017-05-06T10:41:26.057Z,56.70
2017-05-06T10:43:55.324Z,57.30
2017-05-06T10:46:24.281Z,58.30
2017-05-06T10:48:53.243Z,57.70
2017-05-06T10:51:22.279Z,58.70
2017-05-06T10:53:51.269Z,59.40
2017-05-06T10:56:20.562Z,56.80
2017-05-06T10:58:49.522Z,57.60
2017-05-06T11:01:18.550Z,58.20
2017-05-06T11:03:47.553Z,58.00
2017-05-06T11:06:16.513Z,58.70
2017-05-06T11:08:45.771Z,57.00
2017-05-06T11:11:15.549Z,57.70
2017-05-06T11:13:44.531Z,58.10
2017-05-06T11:16:13.494Z,59.90
2017-05-06T11:18:42.441Z,57.00
2017-05-06T11:21:11.676Z,56.60
2017-05-06T11:23:40.662Z,57.90
2017-05-06T11:26:09.672Z,56.40
2017-05-06T11:28:38.665Z,56.50
2017-05-06T11:31:07.610Z,58.10
2017-05-06T11:33:37.674Z,58.20
2017-05-06T11:36:06.662Z,57.30
2017-05-06T11:38:35.606Z,56.90
2017-05-06T11:41:04.616Z,57.10
2017-05-06T11:43:33.799Z,57.00
2017-05-06T11:46:03.347Z,56.20
2017-05-06T11:48:32.307Z,54.00
2017-05-06T11:51:04.587Z,53.80
2017-05-06T11:53:34.324Z,54.30
2017-05-06T11:56:03.277Z,54.30
2017-05-06T11:58:32.975Z,52.80
2017-05-06T12:01:01.956Z,53.00
2017-05-06T12:03:31.311Z,53.30
2017-05-06T12:06:00.283Z,52.20
2017-05-06T12:08:30.145Z,52.10
2017-05-06T12:10:59.100Z,53.90
2017-05-06T12:13:28.083Z,53.00
2017-05-06T12:15:57.351Z,53.70
2017-05-06T12:18:26.378Z,53.90
2017-05-06T12:20:55.362Z,54.30
2017-05-06T12:23:25.135Z,53.30
2017-05-06T12:25:54.192Z,53.70
2017-05-06T12:28:23.610Z,52.00
2017-05-06T12:30:52.598Z,50.90
2017-05-06T12:33:22.420Z,53.40
2017-05-06T12:35:51.428Z,52.40
2017-05-06T12:38:20.373Z,52.70
2017-05-06T12:40:49.742Z,51.80
2017-05-06T12:43:19.655Z,52.30
2017-05-06T12:45:49.676Z,53.60
2017-05-06T12:48:19.571Z,54.20
2017-05-06T12:50:48.519Z,55.30
2017-05-06T12:53:17.635Z,54.90
2017-05-06T12:55:46.683Z,54.50
2017-05-06T12:58:15.983Z,55.10
2017-05-06T13:00:45.004Z,53.60
2017-05-06T13:03:13.978Z,53.40
2017-05-06T13:05:42.966Z,54.40
2017-05-06T13:08:11.935Z,54.90
2017-05-06T13:10:42.046Z,53.80
2017-05-06T13:13:11.000Z,54.60
2017-05-06T13:15:40.034Z,56.00
2017-05-06T13:18:09.733Z,56.50
2017-05-06T13:20:38.730Z,56.70
2017-05-06T13:23:08.144Z,57.40
2017-05-06T13:25:37.849Z,57.90
2017-05-06T13:28:07.895Z,58.30
2017-05-06T13:30:36.949Z,59.00
2017-05-06T13:33:05.932Z,59.30
2017-05-06T13:35:34.905Z,60.20
2017-05-06T13:38:03.899Z,58.80
2017-05-06T13:40:33.159Z,58.80
2017-05-06T13:43:02.133Z,58.90
2017-05-06T13:45:31.088Z,58.90
2017-05-06T13:48:00.070Z,57.70
2017-05-06T13:50:29.012Z,57.70
2017-05-06T13:52:59.066Z,57.60
2017-05-06T13:55:28.082Z,57.90
2017-05-06T13:57:57.090Z,57.30
2017-05-06T14:00:26.157Z,57.20
2017-05-06T14:02:55.136Z,56.60
2017-05-06T14:05:24.531Z,56.10
2017-05-06T14:07:53.521Z,56.70
2017-05-06T14:10:22.534Z,57.40
2017-05-06T14:12:51.563Z,57.00
2017-05-06T14:15:21.346Z,57.30
2017-05-06T14:17:50.671Z,56.80
2017-05-06T14:20:20.398Z,56.80
2017-05-06T14:22:49.335Z,56.20
2017-05-06T14:25:18.322Z,56.40
2017-05-06T14:27:47.390Z,56.20
2017-05-06T14:30:16.792Z,56.10
2017-05-06T14:32:45.844Z,56.70
2017-05-06T14:35:14.811Z,56.40
2017-05-06T14:37:43.841Z,55.90
2017-05-06T14:40:13.558Z,56.70
2017-05-06T14:42:43.683Z,54.90
2017-05-06T14:45:12.705Z,54.90
2017-05-06T14:47:41.654Z,55.00
2017-05-06T14:50:11.375Z,53.00
2017-05-06T14:52:40.416Z,53.20
2017-05-06T14:55:09.759Z,53.10
2017-05-06T14:57:39.437Z,54.20
2017-05-06T15:00:08.443Z,54.00
2017-05-06T15:02:37.453Z,54.50
2017-05-06T15:05:07.176Z,55.00
2017-05-06T15:07:36.444Z,55.80
2017-05-06T15:10:06.139Z,55.20
2017-05-06T15:12:35.087Z,55.90
2017-05-06T15:15:04.065Z,55.70
2017-05-06T15:17:33.051Z,55.80
2017-05-06T15:20:02.311Z,55.70
2017-05-06T15:22:31.279Z,56.50
2017-05-06T15:25:00.258Z,56.40
2017-05-06T15:27:29.273Z,57.50
2017-05-06T15:29:58.266Z,57.50
2017-05-06T15:32:27.632Z,57.90
2017-05-06T15:34:56.586Z,57.10
2017-05-06T15:37:25.540Z,57.90
2017-05-06T15:39:54.533Z,57.40
2017-05-06T15:42:23.599Z,56.50
2017-05-06T15:44:52.957Z,56.60
2017-05-06T15:47:21.956Z,56.90
2017-05-06T15:49:50.918Z,57.50
2017-05-06T15:52:19.952Z,57.30
2017-05-06T15:54:49.725Z,56.90
2017-05-06T15:57:19.179Z,56.40
2017-05-06T15:59:48.158Z,56.50
2017-05-06T16:02:17.950Z,57.00
2017-05-06T16:04:46.947Z,56.60
2017-05-06T16:07:15.950Z,56.10
2017-05-06T16:09:46.028Z,56.60
2017-05-06T16:12:14.976Z,57.20
2017-05-06T16:14:44.075Z,59.00
2017-05-06T16:17:13.076Z,58.40
2017-05-06T16:19:42.039Z,59.40
2017-05-06T16:22:12.095Z,59.80
2017-05-06T16:24:41.055Z,59.30
2017-05-06T16:27:10.040Z,59.10
2017-05-06T16:29:39.451Z,58.70
2017-05-06T16:32:09.285Z,58.90
2017-05-06T16:34:38.255Z,59.90
2017-05-06T16:37:07.547Z,59.00
2017-05-06T16:39:37.256Z,59.40
2017-05-06T16:42:06.966Z,60.10
2017-05-06T16:44:36.960Z,60.20
2017-05-06T16:47:05.933Z,60.70
2017-05-06T16:49:34.886Z,61.10
2017-05-06T16:52:04.169Z,61.40
2017-05-06T16:54:33.158Z,61.80
2017-05-06T16:57:02.116Z,62.20
2017-05-06T16:59:31.381Z,61.20
2017-05-06T17:02:00.351Z,60.90
2017-05-06T17:04:29.443Z,61.00
2017-05-06T17:06:58.715Z,58.90
2017-05-06T17:09:28.443Z,59.60
2017-05-06T17:11:58.208Z,60.10
2017-05-06T17:14:27.544Z,60.60
2017-05-06T17:16:57.290Z,61.50
2017-05-06T17:19:26.297Z,61.60
2017-05-06T17:21:55.567Z,61.60
2017-05-06T17:24:24.534Z,61.80
2017-05-06T17:26:54.311Z,61.90
2017-05-06T17:29:23.608Z,61.90
2017-05-06T17:31:52.555Z,61.30
2017-05-06T17:34:21.533Z,61.80
2017-05-06T17:36:51.641Z,62.20
2017-05-06T17:39:20.596Z,62.70
2017-05-06T17:41:49.574Z,63.10
2017-05-06T17:44:18.928Z,62.80
2017-05-06T17:46:48.656Z,63.30
2017-05-06T17:49:17.691Z,62.60
2017-05-06T17:51:46.936Z,62.20
2017-05-06T17:54:15.912Z,62.30
2017-05-06T17:56:45.004Z,61.30
2017-05-06T17:59:14.929Z,59.70
2017-05-06T18:01:43.890Z,60.10
2017-05-06T18:04:12.924Z,60.10
2017-05-06T18:06:42.926Z,60.10
2017-05-06T18:09:12.695Z,60.00
2017-05-06T18:11:41.979Z,59.30
2017-05-06T18:14:11.250Z,58.90
2017-05-06T18:16:40.264Z,58.40
2017-05-06T18:19:09.351Z,59.20
2017-05-06T18:21:38.713Z,60.40
2017-05-06T18:24:07.693Z,62.10
2017-05-06T18:26:36.679Z,63.60
2017-05-06T18:29:06.019Z,63.90
2017-05-06T18:31:35.011Z,64.70
2017-05-06T18:34:04.717Z,65.40
2017-05-06T18:36:34.819Z,66.00
2017-05-06T18:39:03.756Z,67.00
2017-05-06T18:41:32.750Z,67.40
2017-05-06T18:44:02.007Z,67.90
2017-05-06T18:46:31.707Z,67.40
2017-05-06T18:49:00.690Z,67.50
2017-05-06T18:51:30.031Z,67.80
2017-05-06T18:53:58.990Z,68.40
2017-05-06T18:56:27.950Z,68.80
2017-05-06T18:58:57.314Z,69.00
2017-05-06T19:01:26.293Z,69.20
2017-05-06T19:03:56.102Z,69.80
2017-05-06T19:06:26.195Z,69.30
2017-05-06T19:08:55.236Z,69.20
2017-05-06T19:11:24.180Z,69.50
2017-05-06T19:13:53.490Z,69.40
2017-05-06T19:16:23.371Z,69.90
2017-05-06T19:18:52.541Z,70.00
2017-05-06T19:21:21.853Z,70.00
2017-05-06T19:23:50.853Z,70.00
2017-05-06T19:26:19.835Z,69.90
2017-05-06T19:28:49.196Z,69.90
2017-05-06T19:31:18.250Z,70.10
2017-05-06T19:33:47.244Z,70.40
2017-05-06T19:36:16.521Z,70.40
2017-05-06T19:38:45.590Z,70.50
2017-05-06T19:41:14.583Z,71.00
2017-05-06T19:43:43.852Z,71.10
2017-05-06T19:46:13.594Z,71.30
2017-05-06T19:48:42.598Z,71.40
2017-05-06T19:51:11.878Z,71.50
2017-05-06T19:53:40.878Z,71.60
2017-05-06T19:56:09.854Z,71.80
2017-05-06T19:58:39.139Z,72.30
2017-05-06T20:01:08.851Z,72.10
2017-05-06T20:03:38.960Z,72.30
2017-05-06T20:06:08.003Z,72.40
2017-05-06T20:08:36.982Z,72.70
2017-05-06T20:11:06.366Z,72.70
2017-05-06T20:13:35.328Z,73.70
2017-05-06T20:16:07.399Z,72.90
2017-05-06T20:18:36.499Z,73.70
2017-05-06T20:21:05.530Z,73.90
2017-05-06T20:23:40.856Z,73.10
2017-05-06T20:26:09.816Z,73.40
2017-05-06T20:28:47.729Z,73.40
2017-05-06T20:31:17.367Z,73.50
2017-05-06T20:33:49.107Z,73.70
2017-05-06T20:36:18.381Z,74.00
2017-05-06T20:38:50.344Z,75.10
2017-05-06T20:41:20.359Z,74.10
2017-05-06T20:43:55.041Z,74.20
2017-05-06T20:46:24.256Z,74.10
2017-05-06T20:48:59.126Z,74.10
2017-05-06T20:51:28.836Z,74.20
2017-05-06T20:53:58.845Z,74.30
2017-05-06T20:56:28.533Z,74.40
2017-05-06T20:59:04.576Z,74.80
2017-05-06T21:01:33.584Z,74.80
2017-05-06T21:04:08.416Z,74.60
2017-05-06T21:06:37.445Z,74.70
2017-05-06T21:09:11.610Z,74.80
2017-05-06T21:11:40.635Z,74.90
2017-05-06T21:14:19.373Z,75.20
2017-05-06T21:16:48.317Z,75.40
2017-05-06T21:19:17.353Z,75.60
2017-05-06T21:21:46.624Z,75.60
2017-05-06T21:24:16.351Z,75.70
2017-05-06T21:26:46.078Z,75.80
2017-05-06T21:29:16.178Z,75.60
2017-05-06T21:31:45.942Z,75.90
2017-05-06T21:34:14.894Z,76.90
2017-05-06T21:36:44.189Z,76.40
2017-05-06T21:39:13.155Z,76.30
2017-05-06T21:41:42.889Z,76.40
2017-05-06T21:44:12.195Z,76.10
2017-05-06T21:46:41.963Z,76.60
2017-05-06T21:49:11.020Z,76.40
2017-05-06T21:51:40.278Z,76.10
2017-05-06T21:54:10.036Z,76.50
2017-05-06T21:56:39.008Z,76.20
2017-05-06T21:59:08.275Z,76.50
2017-05-06T22:01:37.981Z,76.40
2017-05-06T22:04:08.000Z,76.40
2017-05-06T22:06:37.724Z,76.40
2017-05-06T22:09:06.707Z,76.80
2017-05-06T22:11:36.717Z,76.30
2017-05-06T22:14:06.443Z,76.30
2017-05-06T22:16:35.482Z,77.60
2017-05-06T22:19:04.881Z,77.80
2017-05-06T22:21:33.818Z,77.80
2017-05-06T22:24:03.553Z,78.00
2017-05-06T22:26:32.872Z,78.30
2017-05-06T22:29:02.086Z,78.00
2017-05-06T22:31:31.040Z,78.20
2017-05-06T22:34:00.402Z,77.80
2017-05-06T22:36:29.342Z,78.10
2017-05-06T22:38:58.318Z,78.40
2017-05-06T22:41:27.628Z,78.60
2017-05-06T22:43:56.691Z,78.60
2017-05-06T22:46:26.440Z,78.90
2017-05-06T22:48:55.849Z,78.80
2017-05-06T22:51:24.791Z,78.70
2017-05-06T22:53:54.661Z,78.90
2017-05-06T22:56:23.978Z,78.90
2017-05-06T22:58:52.922Z,78.70
2017-05-06T23:01:21.940Z,78.40
2017-05-06T23:03:51.237Z,78.10
2017-05-06T23:06:20.205Z,78.40
2017-05-06T23:08:49.147Z,77.80
2017-05-06T23:11:18.463Z,78.40
2017-05-06T23:13:48.174Z,78.90
2017-05-06T23:16:17.867Z,79.10
2017-05-06T23:18:47.406Z,79.20
2017-05-06T23:21:16.359Z,78.50
2017-05-06T23:23:45.294Z,78.90
2017-05-06T23:26:15.316Z,79.00
2017-05-06T23:28:44.341Z,78.70
2017-05-06T23:31:13.327Z,78.30
2017-05-06T23:33:42.574Z,78.20
2017-05-06T23:36:12.258Z,78.10
2017-05-06T23:38:41.226Z,77.90
2017-05-06T23:41:10.619Z,77.80
2017-05-06T23:43:39.620Z,77.90
2017-05-06T23:46:08.564Z,78.00
2017-05-06T23:48:37.827Z,77.70
2017-05-06T23:51:06.782Z,78.10
2017-05-06T23:53:35.779Z,78.30
2017-05-06T23:56:05.010Z,78.10
2017-05-06T23:58:33.974Z,78.40
